Time;durP1;ratioP1;P1;durP2;ratioP2;P2;SDS_P1;SDS_P2;PMS_P1;PMS_P2;Temp;Humidity;BMP_temperature;BMP_pressure;BME280_temperature;BME280_humidity;BME280_pressure;Samples;Min_cycle;Max_cycle;Signal;HPM_P1;HPM_P2
2021/05/02 00:02:12;;;;;;;8.87;7.97;;;;;;;5.95;100.00;101904.81;1872499;75;26229;-78
2021/05/02 00:04:42;;;;;;;12.37;8.80;;;;;;;5.58;100.00;101910.80;1872452;77;26192;-79
2021/05/02 00:07:13;;;;;;;9.00;8.10;;;;;;;5.50;100.00;101905.58;1859336;77;26259;-78
2021/05/02 00:09:43;;;;;;;10.97;9.43;;;;;;;5.85;100.00;101907.25;1872299;77;26256;-78
2021/05/02 00:12:13;;;;;;;10.87;9.77;;;;;;;6.10;100.00;101912.72;1872402;77;26189;-78
2021/05/02 00:14:42;;;;;;;11.00;9.23;;;;;;;6.26;100.00;101905.20;1872518;77;26291;-79
2021/05/02 00:17:13;;;;;;;11.43;10.23;;;;;;;6.10;100.00;101905.30;1872507;77;26197;-79
2021/05/02 00:19:44;;;;;;;11.83;10.57;;;;;;;6.29;100.00;101899.25;1872432;77;26216;-78
2021/05/02 00:22:16;;;;;;;12.07;10.77;;;;;;;6.38;100.00;101895.91;1872380;77;26648;-78
2021/05/02 00:24:48;;;;;;;10.93;9.83;;;;;;;6.39;100.00;101906.42;1872421;77;26719;-78
2021/05/02 00:27:18;;;;;;;12.10;10.90;;;;;;;6.30;100.00;101904.52;1872410;77;26217;-79
2021/05/02 00:29:48;;;;;;;12.33;11.03;;;;;;;6.24;100.00;101904.61;1872404;77;26648;-79
2021/05/02 00:32:18;;;;;;;13.27;11.10;;;;;;;6.72;100.00;101901.83;1872440;77;26286;-78
2021/05/02 00:34:49;;;;;;;13.10;11.13;;;;;;;6.92;100.00;101906.54;1872544;77;26284;-77
2021/05/02 00:37:20;;;;;;;11.03;9.87;;;;;;;7.01;100.00;101907.89;1872549;77;26244;-77
2021/05/02 00:39:50;;;;;;;11.53;9.30;;;;;;;6.77;100.00;101913.02;1872466;77;26278;-77
2021/05/02 00:42:24;;;;;;;11.73;10.57;;;;;;;6.44;100.00;101907.95;1872369;77;26644;-77
2021/05/02 00:44:59;;;;;;;11.70;10.50;;;;;;;6.40;100.00;101915.86;1872494;76;26213;-78
2021/05/02 00:47:33;;;;;;;12.83;11.40;;;;;;;6.35;100.00;101910.19;1872575;77;26318;-78
2021/05/02 00:50:09;;;;;;;12.23;10.23;;;;;;;6.33;100.00;101912.88;1872450;77;26278;-78
2021/05/02 00:52:44;;;;;;;12.53;10.90;;;;;;;6.34;100.00;101914.55;1872370;77;26276;-77
2021/05/02 00:55:17;;;;;;;13.00;11.20;;;;;;;6.32;100.00;101905.67;1870967;76;26200;-77
2021/05/02 00:57:52;;;;;;;14.57;11.63;;;;;;;6.21;100.00;101901.75;1858246;77;26592;-77
2021/05/02 01:00:26;;;;;;;14.60;11.17;;;;;;;6.18;100.00;101899.47;1872379;77;26275;-77
2021/05/02 01:02:57;;;;;;;14.13;11.70;;;;;;;6.25;100.00;101900.22;1872303;75;26241;-78
2021/05/02 01:05:29;;;;;;;15.57;11.90;;;;;;;6.42;100.00;101894.91;1872407;77;26186;-77
2021/05/02 01:08:01;;;;;;;13.80;11.60;;;;;;;6.21;100.00;101899.00;1872218;77;26256;-78
2021/05/02 01:10:32;;;;;;;13.50;11.93;;;;;;;6.20;100.00;101898.72;1888161;74;26376;-78
2021/05/02 01:13:04;;;;;;;14.00;11.53;;;;;;;6.27;100.00;101900.00;1891989;75;26219;-77
2021/05/02 01:15:35;;;;;;;12.67;11.37;;;;;;;6.24;100.00;101899.09;1892026;76;26304;-78
2021/05/02 01:18:08;;;;;;;13.03;11.73;;;;;;;6.14;100.00;101907.05;1891964;76;26284;-78
2021/05/02 01:20:41;;;;;;;12.63;11.27;;;;;;;6.10;100.00;101903.92;1891953;76;26702;-78
2021/05/02 01:23:21;;;;;;;13.90;12.00;;;;;;;5.93;100.00;101906.44;1892053;75;26759;-78
2021/05/02 01:25:54;;;;;;;13.30;11.90;;;;;;;5.91;100.00;101905.81;1892184;76;26303;-77
2021/05/02 01:28:26;;;;;;;13.37;11.70;;;;;;;5.90;100.00;101906.88;1892048;75;26729;-76
2021/05/02 01:30:57;;;;;;;14.23;11.53;;;;;;;6.01;100.00;101914.95;1891930;76;26260;-76
2021/05/02 01:33:27;;;;;;;13.97;12.47;;;;;;;5.91;100.00;101913.23;1892188;76;26661;-76
2021/05/02 01:35:57;;;;;;;16.57;11.60;;;;;;;5.96;100.00;101913.41;1892115;75;26296;-76
2021/05/02 01:38:29;;;;;;;15.07;12.60;;;;;;;5.84;100.00;101918.80;1891904;76;26717;-76
2021/05/02 01:40:59;;;;;;;13.67;12.00;;;;;;;6.02;100.00;101912.50;1891954;76;26198;-76
2021/05/02 01:43:29;;;;;;;14.77;12.07;;;;;;;6.07;100.00;101914.05;1892082;76;26218;-76
2021/05/02 01:45:58;;;;;;;13.87;11.37;;;;;;;6.08;100.00;101915.70;1891935;76;26712;-76
2021/05/02 01:48:30;;;;;;;12.10;10.80;;;;;;;6.12;100.00;101915.55;1891886;74;26185;-76
2021/05/02 01:51:03;;;;;;;14.40;11.90;;;;;;;6.13;100.00;101920.53;1891857;76;26237;-76
2021/05/02 01:53:34;;;;;;;13.07;10.77;;;;;;;6.16;100.00;101912.63;1891984;76;26682;-77
2021/05/02 01:56:04;;;;;;;12.50;11.20;;;;;;;6.18;100.00;101910.50;1891910;76;26193;-76
2021/05/02 01:58:36;;;;;;;13.47;11.33;;;;;;;6.31;100.00;101906.20;1892030;75;26178;-76
2021/05/02 02:01:08;;;;;;;14.00;11.37;;;;;;;6.35;100.00;101909.34;1891950;75;26267;-77
2021/05/02 02:03:38;;;;;;;12.90;11.47;;;;;;;6.37;100.00;101905.83;1892022;74;26310;-78
2021/05/02 02:06:09;;;;;;;12.67;11.37;;;;;;;6.29;100.00;101904.77;1891925;76;26215;-78
2021/05/02 02:08:39;;;;;;;11.97;10.77;;;;;;;6.44;100.00;101907.11;1891970;75;26186;-77
2021/05/02 02:11:09;;;;;;;13.40;10.83;;;;;;;6.47;100.00;101909.39;1891764;76;26716;-76
2021/05/02 02:13:40;;;;;;;11.90;10.70;;;;;;;6.49;100.00;101906.72;1891921;75;26681;-76
2021/05/02 02:16:10;;;;;;;14.30;11.77;;;;;;;6.67;100.00;101906.70;1891913;75;26270;-77
2021/05/02 02:18:41;;;;;;;14.87;12.10;;;;;;;6.72;100.00;101908.72;1891883;76;26206;-77
2021/05/02 02:21:13;;;;;;;12.80;11.40;;;;;;;6.72;100.00;101902.67;1891900;75;26248;-77
2021/05/02 02:23:46;;;;;;;14.37;11.37;;;;;;;6.60;100.00;101905.08;1892092;76;26320;-77
2021/05/02 02:26:20;;;;;;;12.67;10.77;;;;;;;6.44;100.00;101910.71;1891904;76;26641;-77
2021/05/02 02:28:53;;;;;;;13.07;11.00;;;;;;;6.47;100.00;101905.25;1891898;76;26268;-77
2021/05/02 02:31:24;;;;;;;12.07;10.77;;;;;;;6.50;100.00;101900.14;1891963;75;26651;-78
2021/05/02 02:33:53;;;;;;;12.43;10.97;;;;;;;6.44;100.00;101906.57;1891897;76;26334;-77
2021/05/02 02:36:25;;;;;;;11.80;10.60;;;;;;;6.46;100.00;101910.48;1891886;76;26190;-77
2021/05/02 02:38:55;;;;;;;13.23;11.03;;;;;;;6.48;100.00;101906.41;1891905;76;26349;-78
2021/05/02 02:41:26;;;;;;;13.33;11.43;;;;;;;6.54;100.00;101907.41;1891916;75;26227;-80
2021/05/02 02:43:58;;;;;;;13.87;11.37;;;;;;;6.49;100.00;101910.86;1891889;75;26745;-78
2021/05/02 02:46:30;;;;;;;13.50;10.87;;;;;;;6.54;100.00;101908.79;1891919;75;26293;-77
2021/05/02 02:49:02;;;;;;;14.33;11.57;;;;;;;6.68;100.00;101915.80;1891970;76;26339;-78
2021/05/02 02:51:34;;;;;;;12.67;11.37;;;;;;;6.69;100.00;101920.25;1891945;76;26189;-77
2021/05/02 02:54:07;;;;;;;13.77;10.60;;;;;;;6.68;100.00;101911.66;1891887;75;26268;-78
2021/05/02 02:56:38;;;;;;;12.43;11.13;;;;;;;6.58;100.00;101915.52;1891882;76;26695;-77
2021/05/02 02:59:13;;;;;;;11.87;10.50;;;;;;;6.80;100.00;101918.09;1892057;75;26200;-77
2021/05/02 03:01:46;;;;;;;12.60;10.27;;;;;;;6.92;100.00;101916.20;1891737;75;26210;-77
2021/05/02 03:04:17;;;;;;;13.60;10.53;;;;;;;6.61;100.00;101917.28;1891951;76;26166;-76
2021/05/02 03:06:49;;;;;;;11.37;10.10;;;;;;;6.61;100.00;101920.58;1892020;76;26665;-78
2021/05/02 03:09:22;;;;;;;13.40;11.37;;;;;;;6.52;100.00;101927.48;1891864;75;26190;-78
2021/05/02 03:11:52;;;;;;;12.93;10.00;;;;;;;6.49;100.00;101929.34;1891887;74;26222;-78
2021/05/02 03:14:22;;;;;;;13.47;11.27;;;;;;;6.53;100.00;101929.18;1891865;75;26248;-77
2021/05/02 03:16:52;;;;;;;12.87;11.27;;;;;;;6.31;100.00;101929.66;1891867;76;26641;-77
2021/05/02 03:19:26;;;;;;;12.63;10.53;;;;;;;6.25;100.00;101936.09;1891934;75;26750;-78
2021/05/02 03:22:00;;;;;;;12.83;10.10;;;;;;;6.27;100.00;101938.09;1891934;76;26187;-77
2021/05/02 03:24:32;;;;;;;12.97;10.70;;;;;;;6.15;100.00;101939.94;1891938;75;26175;-77
2021/05/02 03:27:05;;;;;;;13.73;11.10;;;;;;;6.21;100.00;101940.38;1891890;76;26186;-77
2021/05/02 03:29:38;;;;;;;15.13;11.47;;;;;;;6.17;100.00;101941.06;1891938;76;26281;-77
2021/05/02 03:32:12;;;;;;;14.13;11.73;;;;;;;6.15;100.00;101942.70;1891855;75;26263;-77
2021/05/02 03:34:44;;;;;;;12.73;11.23;;;;;;;6.29;100.00;101941.45;1891942;76;26288;-77
2021/05/02 03:37:16;;;;;;;15.03;12.47;;;;;;;6.19;100.00;101941.70;1891833;76;26621;-77
2021/05/02 03:39:50;;;;;;;15.57;12.00;;;;;;;6.10;100.00;101949.96;1891942;76;26341;-78
2021/05/02 03:42:20;;;;;;;12.90;11.50;;;;;;;6.17;100.00;101947.96;1891836;76;26182;-77
2021/05/02 03:44:50;;;;;;;16.20;12.77;;;;;;;6.29;100.00;101943.39;1891968;76;26252;-77
2021/05/02 03:47:20;;;;;;;13.63;12.23;;;;;;;6.17;100.00;101953.48;1891869;76;26255;-77
2021/05/02 03:49:50;;;;;;;13.27;11.67;;;;;;;6.34;100.00;101952.64;1891911;75;26275;-77
2021/05/02 03:52:19;;;;;;;13.47;12.07;;;;;;;6.17;100.00;101955.70;1891828;75;26295;-77
2021/05/02 03:55:09;;;;;;;13.80;12.17;;;;;;;6.16;100.00;101951.25;1834582;78;33313;-77
2021/05/02 03:57:39;;;;;;;13.77;12.17;;;;;;;6.11;100.00;101951.13;1835040;78;26665;-78
2021/05/02 04:00:11;;;;;;;12.90;11.27;;;;;;;6.13;100.00;101953.10;1823184;76;936915;-77
2021/05/02 04:02:41;;;;;;;14.77;12.20;;;;;;;6.22;100.00;101953.64;1835172;77;26332;-77
2021/05/02 04:05:12;;;;;;;15.00;11.93;;;;;;;5.89;100.00;101954.85;1835028;78;26259;-78
2021/05/02 04:07:41;;;;;;;14.00;12.27;;;;;;;5.78;100.00;101956.08;1835039;78;26677;-77
2021/05/02 04:10:12;;;;;;;13.80;12.40;;;;;;;5.68;100.00;101959.37;1835086;78;26277;-77
2021/05/02 04:12:42;;;;;;;15.53;13.07;;;;;;;5.52;100.00;101966.80;1822482;76;26283;-77
2021/05/02 04:15:14;;;;;;;12.60;11.23;;;;;;;5.48;100.00;101968.32;1819053;79;26650;-77
2021/05/02 04:17:44;;;;;;;15.77;12.87;;;;;;;5.29;100.00;101970.71;1815406;79;26735;-77
2021/05/02 04:20:15;;;;;;;16.93;12.93;;;;;;;5.43;100.00;101967.61;1814216;79;26359;-78
2021/05/02 04:22:45;;;;;;;18.60;13.77;;;;;;;5.32;100.00;101973.01;1815226;79;26284;-78
2021/05/02 04:25:15;;;;;;;15.10;12.63;;;;;;;5.36;100.00;101975.09;1813091;76;26708;-77
2021/05/02 04:27:46;;;;;;;13.77;12.23;;;;;;;5.41;100.00;101971.67;1844672;78;26239;-78
2021/05/02 04:30:17;;;;;;;17.50;13.27;;;;;;;5.31;100.00;101979.58;1882572;76;26643;-79
2021/05/02 04:32:47;;;;;;;16.30;13.53;;;;;;;5.26;100.00;101985.75;1886934;76;26186;-79
2021/05/02 04:35:17;;;;;;;18.27;13.87;;;;;;;5.28;100.00;101980.03;1886980;76;26357;-79
2021/05/02 04:37:46;;;;;;;16.37;13.97;;;;;;;5.39;100.00;101987.60;1887007;76;26264;-79
2021/05/02 04:40:16;;;;;;;16.73;14.20;;;;;;;5.58;100.00;101987.12;1887080;76;26194;-78
2021/05/02 04:42:46;;;;;;;17.50;14.70;;;;;;;5.57;100.00;101985.42;1887042;76;26657;-78
2021/05/02 04:45:16;;;;;;;17.27;13.90;;;;;;;5.68;100.00;101995.20;1887057;76;26178;-78
2021/05/02 04:47:46;;;;;;;17.03;13.93;;;;;;;5.63;100.00;101990.05;1887050;76;26194;-78
2021/05/02 04:50:16;;;;;;;19.33;15.40;;;;;;;5.64;100.00;101995.87;1887073;76;26253;-78
2021/05/02 04:52:46;;;;;;;18.17;14.90;;;;;;;5.69;100.00;101998.25;1887118;76;26214;-78
2021/05/02 04:55:15;;;;;;;20.63;15.60;;;;;;;5.67;100.00;102002.31;1887029;76;26736;-78
2021/05/02 04:57:45;;;;;;;17.30;14.57;;;;;;;5.70;100.00;101999.94;1887004;76;26251;-77
2021/05/02 05:00:16;;;;;;;17.10;14.90;;;;;;;5.62;100.00;102009.87;1886974;76;26271;-77
2021/05/02 05:02:46;;;;;;;15.73;13.90;;;;;;;5.59;100.00;102012.23;1887122;75;26199;-77
2021/05/02 05:05:16;;;;;;;16.47;14.67;;;;;;;5.49;100.00;102009.45;1887095;76;26174;-77
2021/05/02 05:07:46;;;;;;;16.30;14.33;;;;;;;5.53;100.00;102011.22;1886994;76;26248;-78
2021/05/02 05:10:16;;;;;;;17.40;14.77;;;;;;;5.52;100.00;102015.59;1887123;76;26232;-78
2021/05/02 05:12:45;;;;;;;18.67;15.57;;;;;;;5.35;100.00;102020.77;1888858;75;26314;-78
2021/05/02 05:15:16;;;;;;;17.87;15.00;;;;;;;5.32;100.00;102029.48;1902686;75;26264;-79
2021/05/02 05:17:45;;;;;;;19.23;15.47;;;;;;;5.39;100.00;102031.69;1902657;75;26629;-79
2021/05/02 05:20:15;;;;;;;18.67;15.60;;;;;;;5.38;100.00;102035.50;1902523;75;26609;-79
2021/05/02 05:22:45;;;;;;;17.80;14.37;;;;;;;5.33;100.00;102036.16;1902629;75;26347;-78
2021/05/02 05:25:16;;;;;;;17.93;15.23;;;;;;;5.20;100.00;102044.50;1902598;75;26281;-77
2021/05/02 05:27:46;;;;;;;18.60;15.13;;;;;;;5.18;100.00;102043.86;1889256;75;26630;-77
2021/05/02 05:30:17;;;;;;;19.53;15.33;;;;;;;5.16;100.00;102051.52;1887103;76;26281;-77
2021/05/02 05:32:47;;;;;;;18.67;15.20;;;;;;;5.16;100.00;102046.54;1886972;76;26187;-77
2021/05/02 05:35:17;;;;;;;19.20;15.00;;;;;;;5.17;100.00;102049.62;1887070;76;26657;-77
2021/05/02 05:37:46;;;;;;;17.63;14.70;;;;;;;5.23;100.00;102052.31;1887102;76;26193;-77
2021/05/02 05:40:17;;;;;;;20.50;15.73;;;;;;;5.31;100.00;102057.56;1886962;76;26265;-76
2021/05/02 05:42:46;;;;;;;18.90;16.33;;;;;;;5.60;100.00;102064.92;1886889;76;26677;-74
2021/05/02 05:45:18;;;;;;;20.03;16.00;;;;;;;5.67;100.00;102062.42;1887017;76;26245;-74
2021/05/02 05:47:48;;;;;;;21.37;16.10;;;;;;;5.44;100.00;102066.28;1887175;76;26178;-75
2021/05/02 05:50:19;;;;;;;18.40;15.80;;;;;;;5.30;100.00;102074.34;1886971;76;26161;-75
2021/05/02 05:52:50;;;;;;;18.10;15.30;;;;;;;5.38;100.00;102068.56;1887013;76;26197;-76
2021/05/02 05:55:21;;;;;;;17.97;15.73;;;;;;;5.41;100.00;102065.36;1887031;76;26202;-76
2021/05/02 05:57:52;;;;;;;17.60;14.97;;;;;;;5.39;100.00;102069.70;1886990;76;26190;-76
2021/05/02 06:00:23;;;;;;;15.47;13.80;;;;;;;5.31;100.00;102075.47;1886979;76;26234;-77
2021/05/02 06:02:54;;;;;;;19.43;15.37;;;;;;;5.34;100.00;102074.20;1887030;75;26352;-76
2021/05/02 06:05:24;;;;;;;18.87;15.43;;;;;;;5.51;100.00;102075.38;1887077;76;26649;-76
2021/05/02 06:07:53;;;;;;;19.13;15.80;;;;;;;5.58;100.00;102072.55;1886952;76;26194;-76
2021/05/02 06:10:23;;;;;;;17.93;15.60;;;;;;;5.62;100.00;102076.55;1887001;76;26220;-77
2021/05/02 06:12:56;;;;;;;19.70;16.73;;;;;;;5.52;100.00;102074.28;1886941;75;26233;-76
2021/05/02 06:15:25;;;;;;;18.17;15.23;;;;;;;5.56;100.00;102082.98;1886937;76;26280;-76
2021/05/02 06:17:55;;;;;;;19.77;16.13;;;;;;;5.71;100.00;102082.11;1886945;76;26265;-75
2021/05/02 06:20:25;;;;;;;19.43;15.47;;;;;;;5.74;100.00;102079.75;1886972;76;26197;-76
2021/05/02 06:22:55;;;;;;;18.37;14.97;;;;;;;5.68;100.00;102088.08;1886961;76;26249;-76
2021/05/02 06:25:25;;;;;;;17.80;15.27;;;;;;;5.76;100.00;102079.54;1887087;76;26167;-75
2021/05/02 06:27:56;;;;;;;17.57;15.10;;;;;;;6.06;100.00;102084.73;1887125;76;26657;-75
2021/05/02 06:30:27;;;;;;;16.90;14.33;;;;;;;5.99;100.00;102090.82;1886981;76;26186;-76
2021/05/02 06:32:57;;;;;;;17.60;14.50;;;;;;;6.01;100.00;102084.56;1886925;76;26704;-75
2021/05/02 06:35:28;;;;;;;16.83;15.03;;;;;;;6.06;100.00;102086.12;1887062;76;26257;-76
2021/05/02 06:37:57;;;;;;;18.13;14.47;;;;;;;6.05;100.00;102091.31;1887279;76;26711;-75
2021/05/02 06:40:27;;;;;;;17.90;15.70;;;;;;;6.13;100.00;102086.89;1887065;76;26267;-75
2021/05/02 06:42:57;;;;;;;16.83;15.00;;;;;;;6.47;100.00;102089.64;1886962;76;26190;-75
2021/05/02 06:45:27;;;;;;;17.50;14.77;;;;;;;6.32;100.00;102094.16;1886938;76;26264;-75
2021/05/02 06:47:57;;;;;;;19.23;15.53;;;;;;;6.43;100.00;102095.31;1887054;76;26158;-75
2021/05/02 06:50:27;;;;;;;18.27;16.03;;;;;;;6.61;100.00;102091.73;1887050;76;26170;-75
2021/05/02 06:52:57;;;;;;;19.90;15.13;;;;;;;6.69;100.00;102096.42;1886933;76;26178;-76
2021/05/02 06:55:27;;;;;;;17.90;14.83;;;;;;;6.62;100.00;102103.09;1887054;76;26241;-75
2021/05/02 06:57:59;;;;;;;17.27;15.47;;;;;;;6.65;100.00;102094.34;1887016;76;26178;-76
2021/05/02 07:00:29;;;;;;;17.70;15.80;;;;;;;6.76;100.00;102099.13;1887026;76;26252;-75
2021/05/02 07:02:58;;;;;;;17.80;15.43;;;;;;;6.91;100.00;102099.58;1887009;75;26426;-75
2021/05/02 07:05:28;;;;;;;17.40;15.50;;;;;;;7.13;100.00;102103.55;1886948;76;26260;-75
2021/05/02 07:07:59;;;;;;;16.87;14.70;;;;;;;7.25;100.00;102106.38;1887116;76;26174;-75
2021/05/02 07:10:29;;;;;;;18.60;15.27;;;;;;;7.41;100.00;102100.73;1886967;76;26610;-75
2021/05/02 07:12:59;;;;;;;15.77;13.60;;;;;;;7.60;100.00;102106.53;1887114;75;26740;-75
2021/05/02 07:15:29;;;;;;;16.80;15.00;;;;;;;7.69;100.00;102102.36;1891985;75;26654;-76
2021/05/02 07:17:58;;;;;;;17.57;15.67;;;;;;;7.67;100.00;102097.58;1891962;75;26194;-78
2021/05/02 07:20:28;;;;;;;17.43;14.60;;;;;;;7.90;100.00;102097.66;1891968;75;26255;-79
2021/05/02 07:22:58;;;;;;;15.77;14.20;;;;;;;8.00;100.00;102102.05;1891932;75;26256;-76
2021/05/02 07:25:28;;;;;;;17.10;14.53;;;;;;;8.07;100.00;102107.50;1892014;76;26218;-78
2021/05/02 07:27:58;;;;;;;16.93;14.43;;;;;;;8.12;100.00;102107.63;1891907;75;26268;-78
2021/05/02 07:30:29;;;;;;;15.47;13.20;;;;;;;8.26;100.00;102109.07;1892049;76;26382;-79
2021/05/02 07:33:00;;;;;;;15.53;13.00;;;;;;;8.42;100.00;102102.03;1891962;76;26186;-81
2021/05/02 07:35:30;;;;;;;15.33;13.73;;;;;;;8.78;100.00;102105.91;1892033;76;26695;-76
2021/05/02 07:38:00;;;;;;;14.47;12.93;;;;;;;8.84;100.00;102102.72;1891926;76;26609;-77
2021/05/02 07:40:30;;;;;;;14.23;12.77;;;;;;;9.10;100.00;102109.13;1891877;76;26265;-76
2021/05/02 07:43:00;;;;;;;14.40;12.93;;;;;;;9.21;100.00;102099.08;1892072;76;26312;-76
2021/05/02 07:45:30;;;;;;;15.83;13.70;;;;;;;9.20;100.00;102105.73;1891962;76;26178;-77
2021/05/02 07:48:00;;;;;;;14.13;12.27;;;;;;;9.41;100.00;102098.94;1891957;76;26194;-77
2021/05/02 07:50:30;;;;;;;11.90;10.30;;;;;;;9.66;100.00;102101.38;1891970;76;26197;-76
2021/05/02 07:53:00;;;;;;;12.37;10.67;;;;;;;9.53;100.00;102101.14;1891986;75;26222;-80
2021/05/02 07:55:30;;;;;;;12.03;10.77;;;;;;;9.83;100.00;102096.71;1891898;76;26206;-79
2021/05/02 07:58:01;;;;;;;12.20;10.90;;;;;;;9.98;100.00;102095.58;1892130;75;26190;-78
2021/05/02 08:00:31;;;;;;;11.77;9.37;;;;;;;9.97;100.00;102100.83;1892052;76;26677;-76
2021/05/02 08:03:01;;;;;;;10.83;9.73;;;;;;;10.00;100.00;102092.02;1891926;74;26289;-78
2021/05/02 08:05:31;;;;;;;12.97;9.90;;;;;;;10.40;100.00;102093.80;1891970;76;26296;-75
2021/05/02 08:08:01;;;;;;;11.43;10.17;;;;;;;10.34;100.00;102084.56;1892034;76;26186;-77
2021/05/02 08:10:31;;;;;;;10.90;9.63;;;;;;;10.69;100.00;102094.53;1892167;76;26191;-74
2021/05/02 08:13:01;;;;;;;11.20;9.60;;;;;;;10.63;100.00;102090.83;1892118;76;26196;-81
2021/05/02 08:15:31;;;;;;;8.90;8.00;;;;;;;10.56;100.00;102088.79;1877044;74;26242;-77
2021/05/02 08:18:01;;;;;;;8.63;7.57;;;;;;;10.76;100.00;102082.13;1872240;77;26695;-77
2021/05/02 08:20:32;;;;;;;10.63;7.60;;;;;;;11.02;100.00;102090.27;1872353;77;26700;-74
2021/05/02 08:23:02;;;;;;;9.43;8.50;;;;;;;10.97;100.00;102084.63;1872285;77;26637;-73
2021/05/02 08:25:32;;;;;;;9.80;8.63;;;;;;;11.80;100.00;102077.84;1872383;77;26209;-72
2021/05/02 08:28:02;;;;;;;10.60;8.40;;;;;;;11.37;100.00;102079.59;1872544;77;26265;-72
2021/05/02 08:30:32;;;;;;;10.60;8.90;;;;;;;11.48;100.00;102083.31;1872400;77;26210;-73
2021/05/02 08:33:03;;;;;;;10.73;9.57;;;;;;;11.40;100.00;102081.00;1872324;77;26198;-74
2021/05/02 08:35:33;;;;;;;9.67;8.77;;;;;;;11.42;100.00;102085.19;1872267;77;26329;-73
2021/05/02 08:38:04;;;;;;;10.47;9.47;;;;;;;11.69;100.00;102079.64;1872297;77;26679;-74
2021/05/02 08:40:34;;;;;;;10.57;9.43;;;;;;;11.94;100.00;102076.87;1872282;77;26294;-74
2021/05/02 08:43:08;;;;;;;9.70;8.77;;;;;;;11.77;100.00;102074.17;1872488;77;26193;-74
2021/05/02 08:45:38;;;;;;;13.23;8.37;;;;;;;12.07;100.00;102080.58;1872402;77;26252;-73
2021/05/02 08:48:08;;;;;;;7.87;7.10;;;;;;;11.84;100.00;102074.82;1872351;77;26248;-76
2021/05/02 08:50:38;;;;;;;7.27;6.57;;;;;;;12.04;100.00;102077.78;1872381;77;26228;-74
2021/05/02 08:53:08;;;;;;;9.07;6.37;;;;;;;11.96;100.00;102074.09;1872156;77;26249;-74
2021/05/02 08:55:41;;;;;;;6.17;5.67;;;;;;;11.91;100.00;102070.41;1872218;77;26252;-73
2021/05/02 08:58:14;;;;;;;8.67;7.77;;;;;;;11.73;100.00;102084.16;1872262;76;26288;-73
2021/05/02 09:00:45;;;;;;;7.20;6.53;;;;;;;11.58;100.00;102079.80;1872289;77;26726;-73
2021/05/02 09:03:15;;;;;;;7.23;6.53;;;;;;;11.37;100.00;102083.77;1872254;75;26232;-73
2021/05/02 09:05:46;;;;;;;9.07;8.10;;;;;;;11.16;100.00;102083.77;1872201;77;26247;-73
2021/05/02 09:08:32;;;;;;;8.63;7.83;;;;;;;11.11;100.00;102086.48;1872345;77;26259;-73
2021/05/02 09:11:02;;;;;;;8.97;8.17;;;;;;;10.99;100.00;102088.02;1872250;77;26202;-73
2021/05/02 09:13:32;;;;;;;9.00;7.43;;;;;;;11.41;100.00;102086.86;1872379;77;26652;-73
2021/05/02 09:16:04;;;;;;;10.67;7.67;;;;;;;11.63;100.00;102080.71;1885505;76;26230;-73
2021/05/02 09:18:40;;;;;;;7.53;6.83;;;;;;;11.80;100.00;102079.23;1892224;76;26384;-73
2021/05/02 09:21:12;;;;;;;9.50;7.90;;;;;;;12.06;100.00;102076.14;1892033;76;26186;-74
2021/05/02 09:23:43;;;;;;;8.67;7.83;;;;;;;12.72;100.00;102071.87;1892099;74;26271;-74
2021/05/02 09:26:25;;;;;;;7.03;6.33;;;;;;;12.65;100.00;102068.49;1892060;76;26204;-74
2021/05/02 09:28:58;;;;;;;8.03;7.17;;;;;;;12.84;100.00;102071.64;1861809;77;26607;-74
2021/05/02 09:31:30;;;;;;;7.40;6.70;;;;;;;13.19;100.00;102064.88;1895096;75;26681;-74
2021/05/02 09:34:13;;;;;;;7.63;6.93;;;;;;;12.82;100.00;102059.39;1892348;76;26582;-74
2021/05/02 09:36:55;;;;;;;10.17;7.57;;;;;;;12.72;100.00;102057.92;1892040;76;26279;-74
2021/05/02 09:39:39;;;;;;;8.43;7.63;;;;;;;13.03;100.00;102062.56;1892049;76;26202;-74
2021/05/02 09:42:20;;;;;;;7.27;6.57;;;;;;;13.38;100.00;102054.91;1892008;76;26229;-74
2021/05/02 09:44:52;;;;;;;8.73;7.03;;;;;;;13.44;100.00;102059.93;1891852;76;26721;-74
2021/05/02 09:47:34;;;;;;;6.33;5.73;;;;;;;13.61;100.00;102048.81;1891881;76;26377;-74
2021/05/02 09:50:07;;;;;;;6.40;5.80;;;;;;;13.49;100.00;102052.42;1891956;76;26264;-74
2021/05/02 09:52:52;;;;;;;8.27;7.47;;;;;;;13.12;100.00;102055.94;1892076;76;26303;-75
2021/05/02 09:55:26;;;;;;;7.93;7.13;;;;;;;12.85;100.00;102057.99;1891961;76;26189;-74
2021/05/02 09:58:03;;;;;;;8.77;7.67;;;;;;;13.35;100.00;102059.63;1891936;76;26211;-74
2021/05/02 10:00:37;;;;;;;12.37;7.27;;;;;;;12.95;100.00;102056.11;1892164;76;26674;-73
2021/05/02 10:03:11;;;;;;;7.27;6.57;;;;;;;13.32;100.00;102053.20;1891962;74;26361;-73
2021/05/02 10:05:57;;;;;;;7.67;6.30;;;;;;;13.84;100.00;102048.01;1891983;76;26296;-74
2021/05/02 10:08:29;;;;;;;7.33;6.20;;;;;;;12.52;100.00;102053.63;1892028;75;26259;-73
2021/05/02 10:11:03;;;;;;;8.63;5.53;;;;;;;12.18;100.00;102057.30;1891949;76;26339;-74
2021/05/02 10:13:40;;;;;;;6.90;6.13;;;;;;;12.64;100.00;102052.87;1850045;77;26219;-74
2021/05/02 10:16:12;;;;;;;7.13;6.53;;;;;;;12.89;100.00;102048.82;1880102;73;26697;-75
2021/05/02 10:18:42;;;;;;;6.97;6.37;;;;;;;13.54;100.00;102036.23;1843193;77;26207;-75
2021/05/02 10:21:12;;;;;;;9.60;5.13;;;;;;;13.11;100.00;102041.14;1885496;76;26182;-74
2021/05/02 10:23:44;;;;;;;6.47;5.73;;;;;;;13.51;100.00;102037.64;1850110;77;26756;-74
2021/05/02 10:26:15;;;;;;;6.67;5.63;;;;;;;13.69;100.00;102037.09;1881269;76;26186;-74
2021/05/02 10:28:49;;;;;;;7.07;4.87;;;;;;;13.96;100.00;102033.20;1832771;78;26643;-74
2021/05/02 10:31:22;;;;;;;5.80;5.30;;;;;;;13.41;100.00;102036.21;1873421;76;26210;-74
2021/05/02 10:33:52;;;;;;;5.33;4.83;;;;;;;14.45;100.00;102032.09;1874480;75;26269;-74
2021/05/02 10:36:24;;;;;;;6.47;5.30;;;;;;;13.26;100.00;102033.95;1880170;76;26205;-74
2021/05/02 10:38:57;;;;;;;5.27;4.77;;;;;;;12.82;100.00;102030.11;1891920;76;26232;-75
2021/05/02 10:41:33;;;;;;;4.87;4.10;;;;;;;13.26;100.00;102034.79;1891941;76;26202;-75
2021/05/02 10:44:32;;;;;;;5.80;4.60;;;;;;;14.11;100.00;102021.48;1891938;76;26259;-75
2021/05/02 10:47:03;;;;;;;6.83;5.63;;;;;;;14.25;100.00;102026.51;1891891;75;26638;-74
2021/05/02 10:49:58;;;;;;;4.70;3.47;;;;;;;14.80;100.00;102022.78;1891807;76;26186;-76
2021/05/02 10:52:40;;;;;;;5.63;5.13;;;;;;;15.09;100.00;102020.13;1891840;76;26678;-75
2021/05/02 10:55:13;;;;;;;5.90;5.30;;;;;;;14.90;100.00;102019.92;1849850;76;26211;-75
2021/05/02 10:57:43;;;;;;;5.13;4.63;;;;;;;14.88;100.00;102010.44;1885304;76;26182;-75
2021/05/02 11:00:16;;;;;;;5.40;4.00;;;;;;;14.92;100.00;102015.73;1850215;77;26314;-75
2021/05/02 11:02:49;;;;;;;4.33;3.93;;;;;;;14.92;100.00;102007.89;1885349;75;26222;-74
2021/05/02 11:05:20;;;;;;;5.27;4.20;;;;;;;14.93;100.00;102008.18;1850116;77;26360;-74
2021/05/02 11:07:51;;;;;;;5.43;4.47;;;;;;;14.54;100.00;102005.23;1875548;76;26713;-74
2021/05/02 11:10:21;;;;;;;5.90;5.27;;;;;;;14.78;100.00;101999.27;1873797;75;26699;-74
2021/05/02 11:12:51;;;;;;;5.60;4.70;;;;;;;14.89;100.00;102009.87;1873422;76;26306;-74
2021/05/02 11:15:39;;;;;;;5.63;5.13;;;;;;;14.61;100.00;102011.36;1832778;78;26734;-75
2021/05/02 11:18:28;;;;;;;7.20;5.40;;;;;;;14.47;100.00;102005.52;1882045;75;26423;-74
2021/05/02 11:20:58;;;;;;;5.33;4.83;;;;;;;14.59;100.00;102001.00;1896754;74;26329;-74
2021/05/02 11:23:57;;;;;;;5.37;4.70;;;;;;;14.37;100.00;102011.14;1891988;76;26276;-73
2021/05/02 11:26:55;;;;;;;5.03;4.53;;;;;;;13.90;100.00;102009.20;1891915;76;26188;-75
2021/05/02 11:29:25;;;;;;;4.83;4.30;;;;;;;13.51;100.00;102007.48;1892092;75;26701;-74
2021/05/02 11:31:56;;;;;;;4.20;3.80;;;;;;;13.29;100.00;102012.46;1891901;76;26182;-75
2021/05/02 11:34:25;;;;;;;5.97;3.97;;;;;;;13.07;100.00;102020.45;1891873;76;26235;-75